MC SHIMLA BLOCK LEVEL FORECAST
DISTRICT Chamba
Block Bharmour
Forecast Date RAIN  (mm) TEMPERATURE HUMIDITY WIND CloudCover(octa)
Max(0C) Min(0C) 0830(%) 1730(%) Speed(kmph) Direction(0)
25-11-2021 0.0 24.8 7.2 42 21 12 70 1
26-11-2021 0.0 24.6 7.1 46 24 10 68 0
27-11-2021 0.0 23.8 6.3 43 18 10 68 0
28-11-2021 0.0 22.8 6.1 40 19 11 70 0
29-11-2021 0.0 23.7 6.2 31 19 11 68 0
Block Bhatiyat
Forecast Date RAIN  (mm) TEMPERATURE HUMIDITY WIND CloudCover(octa)
Max(0C) Min(0C) 0830(%) 1730(%) Speed(kmph) Direction(0)
25-11-2021 0.0 25.2 7.8 39 19 11 63 1
26-11-2021 0.0 25.0 7.6 43 23 10 61 0
27-11-2021 0.0 24.0 6.7 41 17 10 61 0
28-11-2021 0.0 23.0 6.6 38 18 11 63 0
29-11-2021 0.0 24.0 6.7 29 17 11 61 0
Block Chamba
Forecast Date RAIN  (mm) TEMPERATURE HUMIDITY WIND CloudCover(octa)
Max(0C) Min(0C) 0830(%) 1730(%) Speed(kmph) Direction(0)
25-11-2021 0.0 23.1 5.6 39 19 11 70 1
26-11-2021 0.0 22.9 5.5 43 23 10 68 0
27-11-2021 0.0 22.0 4.6 42 17 10 68 0
28-11-2021 0.0 21.0 4.5 39 18 11 70 0
29-11-2021 0.0 21.9 4.6 29 18 11 68 0
Block Mehla
Forecast Date RAIN  (mm) TEMPERATURE HUMIDITY WIND CloudCover(octa)
Max(0C) Min(0C) 0830(%) 1730(%) Speed(kmph) Direction(0)
25-11-2021 0.0 25.0 7.4 40 20 11 70 1
26-11-2021 0.0 24.8 7.4 44 24 10 68 0
27-11-2021 0.0 23.9 6.4 43 18 10 68 0
28-11-2021 0.0 22.9 6.3 39 18 11 70 0
29-11-2021 0.0 23.8 6.5 30 18 11 68 0
Block  Pangi
Forecast Date RAIN  (mm) TEMPERATURE HUMIDITY WIND CloudCover(octa)
Max(0C) Min(0C) 0830(%) 1730(%) Speed(kmph) Direction(0)
25-11-2021 0.0 24.6 6.9 42 21 11 70 1
26-11-2021 0.0 24.6 6.9 46 25 11 68 0
27-11-2021 0.0 23.9 6.1 42 17 10 68 0
28-11-2021 0.0 22.7 6.0 39 19 11 70 0
29-11-2021 0.0 23.6 6.0 30 19 11 68 0
Block  Saluni
Forecast Date RAIN  (mm) TEMPERATURE HUMIDITY WIND CloudCover(octa)
Max(0C) Min(0C) 0830(%) 1730(%) Speed(kmph) Direction(0)
25-11-2021 0.0 25.0 7.5 39 19 11 70 1
26-11-2021 0.0 24.8 7.3 43 23 10 61 0
27-11-2021 0.0 23.9 6.4 41 17 10 66 0
28-11-2021 0.0 22.9 6.3 38 18 11 65 0
29-11-2021 0.0 23.8 6.4 29 17 11 61 0
Block  Tissa
Forecast Date RAIN  (mm) TEMPERATURE HUMIDITY WIND CloudCover(octa)
Max(0C) Min(0C) 0830(%) 1730(%) Speed(kmph) Direction(0)
25-11-2021 0.0 25.1 7.6 40 20 11 70 1
26-11-2021 0.0 24.9 7.5 43 24 10 68 0
27-11-2021 0.0 24.0 6.6 42 18 10 68 0
28-11-2021 0.0 23.0 6.5 39 18 11 70 0
29-11-2021 0.0 24.0 6.6 29 18 11 68 0